Latest Weather Observations for Cocos Island

IDW60801

Issued at 9:33 am WST Friday 26 August 2016 (issued every 30 minutes, with the page automatically refreshed every 10 minutes)

About weather observations | Map of weather stations | Latest weather observations for WA | Other Formats
Station Details ID: 200284 Name: COCOS ISLAND AIRPORT Lat: -12.19 Lon: 96.83 Height: 3.0 m
Data from the previous 72 hours. | See also: Recent months at Cocos Island
Date/Time
WST
Temp
°C
App
Temp
°C
Dew
Point
°C
Rel
Hum
%
Delta-T
°C
Wind Press
QNH
hPa
Press
MSL
hPa
Rain since
9am
mm
Dir  Spd
km/h
Gust
km/h
Spd
kts
Gust
kts
26/09:30am 26.4 28.0 23.2 82 2.2 SE 20 28 11 15 1009.4 - 0.0
26/09:00am 26.3 27.9 23.2 83 2.1 SSE 20 26 11 14 1009.0 - 0.0
26/08:30am 26.0 27.0 22.1 79 2.6 SSE 20 28 11 15 1008.6 - 0.0
26/08:00am 25.9 27.1 21.4 76 3.0 SSE 17 26 9 14 1008.2 1008.1 0.0
26/07:30am 25.6 26.6 21.7 79 2.6 SSE 19 26 10 14 1008.0 - 0.0
26/07:00am 25.5 27.0 23.0 86 1.7 SSE 20 28 11 15 1007.8 - 0.0
26/06:30am 25.5 26.9 22.8 85 1.8 SE 20 28 11 15 1007.5 - 0.0
26/06:00am 25.6 27.2 22.8 84 1.9 SSE 19 26 10 14 1007.7 - 0.0
26/05:30am 25.6 27.3 22.3 82 2.2 SSE 17 22 9 12 1007.7 - 0.0
26/05:00am 25.6 27.2 22.9 85 1.8 SE 19 22 10 12 1008.0 1007.9 0.0
26/04:30am 25.5 26.9 22.8 85 1.8 SE 20 28 11 15 1007.9 - 0.0
26/04:00am 25.7 27.0 22.7 83 2.0 SE 20 28 11 15 1007.8 - 0.0
26/03:30am 25.8 26.3 22.7 83 2.1 SE 24 32 13 17 1008.2 - 0.0
26/03:07am 25.7 26.9 23.2 86 1.7 SE 22 30 12 16 1008.4 - 0.0
26/03:00am 25.7 26.4 23.0 85 1.8 SE 24 32 13 17 1008.3 - 0.0
26/02:40am 25.7 27.4 23.4 87 1.6 SE 20 28 11 15 1008.7 - 0.0
26/02:39am 25.7 27.3 23.2 86 1.7 SE 20 28 11 15 1008.7 - 0.0
26/02:30am 25.7 27.0 23.4 87 1.6 SE 22 28 12 15 1008.8 - 0.0
26/02:23am 25.7 27.4 23.4 87 1.6 SE 20 28 11 15 1008.9 - 0.0
26/02:00am 25.8 26.6 23.2 85 1.8 SE 24 30 13 16 1009.1 1009.0 0.0
26/01:30am 25.9 26.4 23.3 85 1.8 SE 26 32 14 17 1009.4 - 0.0
26/01:11am 25.9 26.7 23.1 84 1.9 SE 24 32 13 17 1009.6 - 0.0
26/01:00am 25.9 25.5 23.0 84 2.0 SE 30 37 16 20 1009.6 - 0.0
26/12:30am 25.9 26.0 23.3 85 1.8 SE 28 35 15 19 1009.7 - 0.0
26/12:28am 26.0 26.2 23.4 85 1.8 SE 28 35 15 19 1009.7 - 0.0
26/12:00am 25.9 26.8 23.4 86 1.7 SE 24 32 13 17 1009.9 - 0.0
 
Date/Time
WST
Temp
°C
App
Temp
°C
Dew
Point
°C
Rel
Hum
%
Delta-T
°C
Wind Press
QNH
hPa
Press
MSL
hPa
Rain since
9am
mm
Dir  Spd
km/h
Gust
km/h
Spd
kts
Gust
kts
25/11:56pm 25.9 26.4 23.3 85 1.8 SE 26 35 14 19 1009.9 - 0.0
25/11:30pm 25.8 26.7 23.3 86 1.7 SE 24 30 13 16 1009.8 - 0.0
25/11:15pm 25.8 27.0 23.2 85 1.8 SE 22 30 12 16 1010.1 - 0.0
25/11:00pm 25.8 26.6 23.2 85 1.8 SE 24 30 13 16 1010.2 1010.1 0.0
25/10:30pm 25.9 26.8 23.3 85 1.8 SE 24 30 13 16 1010.1 - 0.0
25/10:29pm 25.9 26.8 23.3 85 1.8 SE 24 30 13 16 1010.1 - 0.0
25/10:00pm 25.9 26.8 23.3 85 1.8 SE 24 32 13 17 1010.1 - 0.0
25/09:35pm 25.9 26.8 23.3 85 1.8 SE 24 30 13 16 1009.9 - 0.0
25/09:30pm 26.0 27.2 23.2 84 1.9 SE 22 30 12 16 1009.9 - 0.0
25/09:05pm 26.0 27.3 23.4 85 1.8 SE 22 28 12 15 1009.7 - 0.0
25/09:00pm 26.0 27.2 23.2 84 1.9 SE 22 28 12 15 1009.7 - 0.0
25/08:30pm 26.1 27.7 23.3 84 1.9 ESE 20 24 11 13 1009.4 - 0.0
25/08:00pm 26.0 27.7 23.1 84 2.0 ESE 19 26 10 14 1009.0 1008.9 0.0
25/07:30pm 26.1 28.0 23.5 85 1.8 SE 19 24 10 13 1008.7 - 0.0
25/07:00pm 26.2 27.3 23.0 82 2.2 SE 22 26 12 14 1008.3 - 0.0
25/06:30pm 26.6 28.1 23.1 81 2.4 SE 20 24 11 13 1007.9 - 0.0
25/06:00pm 26.6 27.8 23.2 81 2.3 SE 22 28 12 15 1007.9 - 0.0
25/05:30pm 26.7 27.5 23.2 81 2.4 SE 24 28 13 15 1007.8 - 0.0
25/05:00pm 26.7 28.3 23.3 81 2.3 SE 20 30 11 16 1007.8 1007.7 0.0
25/04:30pm 26.8 27.9 23.1 80 2.5 ESE 22 30 12 16 1007.5 - 0.0
25/04:00pm 27.0 28.2 23.2 80 2.6 ESE 22 30 12 16 1007.6 - 0.0
25/03:30pm 27.1 28.5 23.5 81 2.5 SE 22 30 12 16 1007.7 - 0.0
25/03:00pm 27.1 28.4 23.3 80 2.6 ESE 22 30 12 16 1008.0 - 0.0
25/02:30pm 27.4 29.2 23.5 79 2.7 ESE 20 28 11 15 1008.3 - 0.0
25/02:00pm 27.1 28.4 23.3 80 2.6 SE 22 30 12 16 1008.8 1008.7 0.0
25/01:30pm 27.5 28.8 23.4 78 2.8 SE 22 28 12 15 1009.0 - 0.0
25/01:00pm 26.9 27.7 23.1 80 2.6 ESE 24 32 13 17 1009.0 - 0.0
25/12:30pm 26.9 27.8 22.6 77 2.9 ESE 22 32 12 17 1009.5 - 0.0
25/12:00pm 27.1 28.4 22.7 77 3.0 ESE 20 26 11 14 1009.8 - 0.0
25/11:30am 26.7 27.6 22.6 78 2.8 ESE 22 28 12 15 1010.1 - 0.0
25/11:00am 26.7 28.1 22.6 78 2.8 ESE 19 28 10 15 1010.5 1010.4 0.0
25/10:30am 26.8 28.6 22.5 77 2.9 ESE 17 20 9 11 1010.8 - 0.0
25/10:00am 26.3 28.5 22.6 80 2.5 SE 15 19 8 10 1010.7 - 0.0
25/09:30am 25.7 27.9 22.6 83 2.1 ESE 15 17 8 9 1010.7 - 0.0
25/09:00am 25.3 27.1 22.5 84 1.9 ESE 17 20 9 11 1010.6 - 0.0
25/08:30am 24.8 27.4 22.6 87 1.5 ESE 13 17 7 9 1010.4 - 0.0
25/08:00am 24.6 27.1 22.5 88 1.4 SE 13 17 7 9 1010.2 1010.1 0.0
25/07:30am 24.7 27.4 22.2 86 1.7 SE 11 13 6 7 1010.0 - 0.0
25/07:00am 24.6 27.5 22.5 88 1.4 SE 11 15 6 8 1009.6 - 0.0
25/06:30am 23.3 27.2 21.8 91 1.0 SE 4 7 2 4 1009.2 - 0.0
25/06:00am 22.4 26.5 20.7 90 1.1 CALM 0 0 0 0 1008.9 - 0.0
25/05:30am 23.1 27.4 21.1 88 1.3 CALM 0 0 0 0 1008.8 - 0.0
25/05:00am 24.7 28.3 22.0 85 1.8 ESE 6 9 3 5 1008.8 1008.7 0.0
25/04:30am 24.9 28.4 22.2 85 1.8 ESE 7 11 4 6 1008.9 - 0.0
25/04:00am 24.7 27.6 21.7 83 2.0 ESE 9 11 5 6 1008.9 - 0.0
25/03:30am 25.1 28.7 22.1 83 2.0 ESE 6 9 3 5 1009.2 - 0.0
25/03:00am 24.6 27.9 21.9 85 1.8 ESE 7 9 4 5 1009.5 - 0.0
25/02:30am 23.7 26.8 21.1 85 1.7 ESE 6 7 3 4 1009.9 - 0.0
25/02:00am 25.4 28.9 22.1 82 2.2 ESE 7 11 4 6 1010.1 1010.0 0.0
25/01:30am 25.6 28.7 22.2 81 2.3 ESE 9 13 5 7 1010.2 - 0.0
25/01:00am 25.9 27.7 21.9 78 2.7 E 15 19 8 10 1010.4 - 0.0
25/12:30am 25.9 27.4 22.0 79 2.6 E 17 20 9 11 1010.7 - 0.0
25/12:00am 26.0 27.4 21.8 77 2.8 ENE 17 20 9 11 1011.0 - 0.0
 
Date/Time
WST
Temp
°C
App
Temp
°C
Dew
Point
°C
Rel
Hum
%
Delta-T
°C
Wind Press
QNH
hPa
Press
MSL
hPa
Rain since
9am
mm
Dir  Spd
km/h
Gust
km/h
Spd
kts
Gust
kts
24/11:30pm 26.1 28.3 21.9 77 2.8 ENE 13 20 7 11 1011.2 - 0.0
24/11:00pm 26.0 28.2 21.8 77 2.8 ENE 13 17 7 9 1011.2 1011.1 0.0
24/10:30pm 26.0 28.2 21.8 77 2.8 ENE 13 17 7 9 1011.0 - 0.0
24/10:00pm 26.1 28.7 21.9 77 2.8 ENE 11 17 6 9 1010.9 - 0.0
24/09:30pm 26.0 29.2 22.3 80 2.5 ESE 9 15 5 8 1010.6 - 0.0
24/09:00pm 25.9 29.0 22.8 83 2.1 ESE 11 15 6 8 1010.3 - 0.0
24/08:30pm 26.0 29.2 22.4 80 2.4 ESE 9 15 5 8 1010.0 - 0.0
24/08:00pm 26.0 28.4 22.3 80 2.5 ESE 13 19 7 10 1009.4 1009.3 0.0
24/07:30pm 26.1 28.1 22.2 79 2.6 ESE 15 20 8 11 1008.9 - 0.0
24/07:00pm 26.5 28.1 22.2 77 2.9 ESE 17 20 9 11 1008.8 - 0.0
24/06:30pm 26.8 27.7 21.9 74 3.3 E 20 26 11 14 1008.7 - 0.0
24/06:00pm 27.3 29.0 22.3 74 3.4 E 17 24 9 13 1008.7 - 0.0
24/05:30pm 28.0 29.6 22.2 70 3.9 E 17 26 9 14 1008.5 - 0.0
24/05:00pm 28.1 29.8 22.3 70 3.9 E 17 24 9 13 1008.5 1008.4 0.0
24/04:30pm 28.4 30.2 22.5 70 4.0 ENE 17 20 9 11 1008.4 - 0.0
24/04:00pm 28.3 30.2 22.7 71 3.8 E 17 22 9 12 1008.2 - 0.0
24/03:30pm 28.0 29.7 22.4 71 3.8 E 17 26 9 14 1008.3 - 0.0
24/03:00pm 28.1 30.0 22.7 72 3.7 ESE 17 22 9 12 1008.6 - 0.0
24/02:30pm 27.8 29.1 22.3 72 3.7 ESE 19 26 10 14 1009.1 - 0.0
24/02:00pm 28.0 29.7 22.4 71 3.8 E 17 26 9 14 1009.3 1009.2 0.0
24/01:30pm 27.4 28.4 21.7 71 3.8 ESE 19 28 10 15 1009.5 - 0.0
24/01:00pm 27.7 28.7 22.2 72 3.7 E 20 28 11 15 1009.4 - 0.0
24/12:30pm 27.3 27.4 21.8 72 3.7 E 24 33 13 18 1009.8 - 0.0
24/12:00pm 27.4 28.1 21.6 70 3.9 ESE 20 28 11 15 1010.2 - 0.0
24/11:30am 26.7 26.4 21.1 71 3.7 ESE 24 32 13 17 1010.6 - 0.0
24/11:00am 26.6 26.4 21.2 72 3.6 ESE 24 35 13 19 1010.9 1010.8 0.0
24/10:30am 26.5 26.5 20.9 71 3.7 ESE 22 32 12 17 1010.9 - 0.0
24/10:00am 26.0 25.5 20.8 73 3.4 ESE 24 33 13 18 1010.7 - 0.0
24/09:30am 25.9 25.9 20.9 74 3.3 ESE 22 30 12 16 1010.5 - 0.0
24/09:00am 25.4 25.7 20.7 75 3.1 ESE 20 32 11 17 1010.3 - 0.0
24/08:30am 25.0 25.3 20.7 77 2.8 ESE 20 28 11 15 1010.3 - 0.0
24/08:00am 24.7 24.8 20.4 77 2.8 ESE 20 32 11 17 1009.9 1009.8 0.0
24/07:30am 24.7 23.9 20.1 75 3.0 ESE 24 32 13 17 1009.8 - 0.0
24/07:00am 24.6 23.9 20.3 77 2.8 ESE 24 33 13 18 1009.5 - 0.0
24/06:30am 24.7 23.6 20.2 76 2.9 ESE 26 32 14 17 1009.4 - 0.0
24/06:00am 24.8 24.2 20.4 76 2.9 ESE 24 32 13 17 1009.3 - 0.0
 
Date/Time
WST
Temp
°C
App
Temp
°C
Dew
Point
°C
Rel
Hum
%
Delta-T
°C
Wind Press
QNH
hPa
Press
MSL
hPa
Rain since
9am
mm
Dir  Spd
km/h
Gust
km/h
Spd
kts
Gust
kts
23/09:00pm 25.6 25.1 20.7 74 3.2 ESE 24 33 13 18 1011.0 - 0.0
23/08:30pm 25.6 25.0 20.6 74 3.3 ESE 24 33 13 18 1010.5 - 0.0
23/08:00pm 25.6 24.7 20.7 74 3.2 SE 26 33 14 18 1010.1 1010.0 0.0
23/07:30pm 25.6 24.3 20.6 74 3.3 SE 28 37 15 20 1009.7 - 0.0
23/07:00pm 25.6 24.2 20.4 73 3.4 SE 28 33 15 18 1009.6 - 0.0
23/06:30pm 26.0 24.6 20.5 71 3.6 ESE 28 35 15 19 1009.3 - 0.0
23/06:00pm 26.3 25.1 20.8 71 3.6 ESE 28 37 15 20 1009.2 - 0.0
23/05:30pm 26.5 25.3 20.9 71 3.7 ESE 28 39 15 21 1009.3 - 0.0
23/05:00pm 26.6 25.6 21.2 72 3.6 ESE 28 35 15 19 1009.3 1009.2 0.0
23/04:30pm 26.9 26.1 20.8 69 4.0 ESE 26 37 14 20 1009.4 - 0.0
23/04:00pm 27.0 24.8 20.3 66 4.4 ESE 32 39 17 21 1009.5 - 0.0
23/03:30pm 27.1 26.0 21.1 69 4.0 ESE 28 35 15 19 1009.7 - 0.0
23/03:00pm 27.1 25.7 21.2 70 3.9 ESE 30 39 16 21 1009.9 - 0.0
23/02:30pm 27.2 26.3 20.7 67 4.3 ESE 26 37 14 20 1010.3 - 0.0
23/02:00pm 27.0 25.4 20.8 69 4.1 ESE 30 37 16 20 1010.5 1010.4 0.0
23/01:30pm 27.1 25.7 20.4 66 4.4 ESE 28 37 15 20 1011.0 - 0.0
23/01:00pm 26.9 25.3 20.0 66 4.5 ESE 28 35 15 19 1011.4 - 0.0
23/12:30pm 27.1 26.0 20.2 66 4.5 ESE 26 37 14 20 1011.9 - 0.0
23/12:00pm 27.1 26.0 20.2 66 4.5 ESE 26 35 14 19 1012.2 - 0.0
23/11:30am 26.6 25.5 19.5 65 4.6 ESE 24 33 13 18 1012.6 - 0.0

Other Formats:

Comma delimited format used in spreadsheet applications
http://www.bom.gov.au/fwo/IDW60801/IDW60801.96996.axf

JavaScript Object Notation format (JSON) in row-major order
http://www.bom.gov.au/fwo/IDW60801/IDW60801.96996.json